sensor_id;sensor_type;location;lat;lon;timestamp;temperature;humidity
45843;DHT22;31563;51.744;8.252;2023-05-19T00:00:59;22.90;39.10
45843;DHT22;31563;51.744;8.252;2023-05-19T00:03:28;22.90;39.10
45843;DHT22;31563;51.744;8.252;2023-05-19T00:05:57;22.90;39.80
45843;DHT22;31563;51.744;8.252;2023-05-19T00:08:29;22.80;39.80
45843;DHT22;31563;51.744;8.252;2023-05-19T00:10:58;22.80;39.10
45843;DHT22;31563;51.744;8.252;2023-05-19T00:13:27;22.80;39.80
45843;DHT22;31563;51.744;8.252;2023-05-19T00:15:58;22.80;39.10
45843;DHT22;31563;51.744;8.252;2023-05-19T00:18:26;22.70;39.10
45843;DHT22;31563;51.744;8.252;2023-05-19T00:20:55;22.70;39.20
45843;DHT22;31563;51.744;8.252;2023-05-19T00:23:23;22.70;39.10
45843;DHT22;31563;51.744;8.252;2023-05-19T00:25:51;22.70;39.20
45843;DHT22;31563;51.744;8.252;2023-05-19T00:28:20;22.60;39.20
45843;DHT22;31563;51.744;8.252;2023-05-19T00:30:49;22.60;39.20
45843;DHT22;31563;51.744;8.252;2023-05-19T00:33:18;22.60;39.30
45843;DHT22;31563;51.744;8.252;2023-05-19T00:35:46;22.60;39.30
45843;DHT22;31563;51.744;8.252;2023-05-19T00:38:15;22.60;39.10
45843;DHT22;31563;51.744;8.252;2023-05-19T00:40:43;22.60;39.00
45843;DHT22;31563;51.744;8.252;2023-05-19T00:43:12;22.60;39.00
45843;DHT22;31563;51.744;8.252;2023-05-19T00:45:40;22.50;38.90
45843;DHT22;31563;51.744;8.252;2023-05-19T00:48:08;22.50;38.90
45843;DHT22;31563;51.744;8.252;2023-05-19T00:50:38;22.50;39.50
45843;DHT22;31563;51.744;8.252;2023-05-19T00:53:07;22.50;39.50
45843;DHT22;31563;51.744;8.252;2023-05-19T00:55:36;22.50;38.90
45843;DHT22;31563;51.744;8.252;2023-05-19T00:58:08;22.40;38.90
45843;DHT22;31563;51.744;8.252;2023-05-19T01:00:37;22.40;38.90
45843;DHT22;31563;51.744;8.252;2023-05-19T01:03:06;22.40;38.80
45843;DHT22;31563;51.744;8.252;2023-05-19T01:05:40;22.40;38.80
45843;DHT22;31563;51.744;8.252;2023-05-19T01:08:10;22.40;38.90
45843;DHT22;31563;51.744;8.252;2023-05-19T01:10:38;22.30;38.80
45843;DHT22;31563;51.744;8.252;2023-05-19T01:13:07;22.30;38.80
45843;DHT22;31563;51.744;8.252;2023-05-19T01:15:50;22.30;38.70
45843;DHT22;31563;51.744;8.252;2023-05-19T01:18:33;22.30;38.80
45843;DHT22;31563;51.744;8.252;2023-05-19T01:21:24;22.20;38.70
45843;DHT22;31563;51.744;8.252;2023-05-19T01:24:07;22.20;38.70
45843;DHT22;31563;51.744;8.252;2023-05-19T01:29:41;22.20;38.70
45843;DHT22;31563;51.744;8.252;2023-05-19T01:32:11;22.10;38.60
45843;DHT22;31563;51.744;8.252;2023-05-19T01:34:43;22.10;38.60
45843;DHT22;31563;51.744;8.252;2023-05-19T01:37:14;22.10;38.70
45843;DHT22;31563;51.744;8.252;2023-05-19T01:39:42;22.10;38.60
45843;DHT22;31563;51.744;8.252;2023-05-19T01:42:12;22.10;38.70
45843;DHT22;31563;51.744;8.252;2023-05-19T01:44:41;22.00;38.60
45843;DHT22;31563;51.744;8.252;2023-05-19T01:47:11;22.00;38.60
45843;DHT22;31563;51.744;8.252;2023-05-19T01:49:39;22.00;38.60
45843;DHT22;31563;51.744;8.252;2023-05-19T01:52:07;22.00;38.60
45843;DHT22;31563;51.744;8.252;2023-05-19T01:54:35;22.00;38.60
45843;DHT22;31563;51.744;8.252;2023-05-19T01:57:11;22.00;38.70
45843;DHT22;31563;51.744;8.252;2023-05-19T01:59:50;21.90;38.60
45843;DHT22;31563;51.744;8.252;2023-05-19T02:02:27;21.90;38.60
45843;DHT22;31563;51.744;8.252;2023-05-19T02:05:02;21.90;38.60
45843;DHT22;31563;51.744;8.252;2023-05-19T02:07:40;21.90;38.60
45843;DHT22;31563;51.744;8.252;2023-05-19T02:10:12;21.80;38.60
45843;DHT22;31563;51.744;8.252;2023-05-19T02:12:42;21.80;38.60
45843;DHT22;31563;51.744;8.252;2023-05-19T02:15:14;21.80;38.50
45843;DHT22;31563;51.744;8.252;2023-05-19T02:17:45;21.80;38.50
45843;DHT22;31563;51.744;8.252;2023-05-19T02:20:17;21.80;38.60
45843;DHT22;31563;51.744;8.252;2023-05-19T02:22:45;21.80;38.60
45843;DHT22;31563;51.744;8.252;2023-05-19T02:25:14;21.70;38.60
45843;DHT22;31563;51.744;8.252;2023-05-19T02:27:42;21.70;38.50
45843;DHT22;31563;51.744;8.252;2023-05-19T02:30:10;21.70;38.50
45843;DHT22;31563;51.744;8.252;2023-05-19T02:32:38;21.70;38.50
45843;DHT22;31563;51.744;8.252;2023-05-19T02:35:08;21.70;38.50
45843;DHT22;31563;51.744;8.252;2023-05-19T02:37:37;21.60;38.40
45843;DHT22;31563;51.744;8.252;2023-05-19T02:40:06;21.60;38.50
45843;DHT22;31563;51.744;8.252;2023-05-19T02:42:34;21.60;38.50
45843;DHT22;31563;51.744;8.252;2023-05-19T02:45:03;21.60;38.50
45843;DHT22;31563;51.744;8.252;2023-05-19T02:47:31;21.60;38.50
45843;DHT22;31563;51.744;8.252;2023-05-19T02:50:03;21.60;38.50
45843;DHT22;31563;51.744;8.252;2023-05-19T02:52:33;21.50;38.50
45843;DHT22;31563;51.744;8.252;2023-05-19T02:55:01;21.50;38.50
45843;DHT22;31563;51.744;8.252;2023-05-19T02:57:29;21.50;38.50
45843;DHT22;31563;51.744;8.252;2023-05-19T02:59:58;21.50;38.50
45843;DHT22;31563;51.744;8.252;2023-05-19T03:02:27;21.50;38.60
45843;DHT22;31563;51.744;8.252;2023-05-19T03:04:55;21.50;38.60
45843;DHT22;31563;51.744;8.252;2023-05-19T03:07:24;21.40;38.50
45843;DHT22;31563;51.744;8.252;2023-05-19T03:09:54;21.40;38.50
45843;DHT22;31563;51.744;8.252;2023-05-19T03:12:22;21.30;38.50
45843;DHT22;31563;51.744;8.252;2023-05-19T03:14:50;21.40;38.60
45843;DHT22;31563;51.744;8.252;2023-05-19T03:17:18;21.30;38.50
45843;DHT22;31563;51.744;8.252;2023-05-19T03:19:46;21.30;38.60
45843;DHT22;31563;51.744;8.252;2023-05-19T03:22:15;21.30;38.50
45843;DHT22;31563;51.744;8.252;2023-05-19T03:24:44;21.30;39.20
45843;DHT22;31563;51.744;8.252;2023-05-19T03:27:13;21.30;38.50
45843;DHT22;31563;51.744;8.252;2023-05-19T03:29:42;21.30;38.50
45843;DHT22;31563;51.744;8.252;2023-05-19T03:32:10;21.20;38.50
45843;DHT22;31563;51.744;8.252;2023-05-19T03:34:38;21.20;38.50
45843;DHT22;31563;51.744;8.252;2023-05-19T03:37:06;21.20;38.50
45843;DHT22;31563;51.744;8.252;2023-05-19T03:39:36;21.20;38.50
45843;DHT22;31563;51.744;8.252;2023-05-19T03:42:05;21.20;38.50
45843;DHT22;31563;51.744;8.252;2023-05-19T03:44:34;21.20;38.50
45843;DHT22;31563;51.744;8.252;2023-05-19T03:47:02;21.20;38.50
45843;DHT22;31563;51.744;8.252;2023-05-19T03:49:31;21.10;38.50
45843;DHT22;31563;51.744;8.252;2023-05-19T03:51:59;21.20;38.50
45843;DHT22;31563;51.744;8.252;2023-05-19T03:54:29;21.10;38.40
45843;DHT22;31563;51.744;8.252;2023-05-19T03:56:57;21.10;38.50
45843;DHT22;31563;51.744;8.252;2023-05-19T03:59:25;21.10;38.50
45843;DHT22;31563;51.744;8.252;2023-05-19T04:01:55;21.10;38.50
45843;DHT22;31563;51.744;8.252;2023-05-19T04:04:23;21.10;38.50
45843;DHT22;31563;51.744;8.252;2023-05-19T04:06:52;21.10;38.50
45843;DHT22;31563;51.744;8.252;2023-05-19T04:09:20;21.00;38.50
45843;DHT22;31563;51.744;8.252;2023-05-19T04:11:49;21.00;38.40
45843;DHT22;31563;51.744;8.252;2023-05-19T04:14:17;21.00;38.50
45843;DHT22;31563;51.744;8.252;2023-05-19T04:16:47;21.00;38.50
45843;DHT22;31563;51.744;8.252;2023-05-19T04:19:16;21.00;38.40
45843;DHT22;31563;51.744;8.252;2023-05-19T04:21:44;21.00;38.50
45843;DHT22;31563;51.744;8.252;2023-05-19T04:24:12;21.00;38.40
45843;DHT22;31563;51.744;8.252;2023-05-19T04:26:41;21.00;38.40
45843;DHT22;31563;51.744;8.252;2023-05-19T04:29:11;21.00;38.40
45843;DHT22;31563;51.744;8.252;2023-05-19T04:31:44;21.00;38.40
45843;DHT22;31563;51.744;8.252;2023-05-19T04:34:12;21.00;38.40
45843;DHT22;31563;51.744;8.252;2023-05-19T04:36:42;21.00;38.40
45843;DHT22;31563;51.744;8.252;2023-05-19T04:39:10;21.00;38.40
45843;DHT22;31563;51.744;8.252;2023-05-19T04:41:38;21.00;38.40
45843;DHT22;31563;51.744;8.252;2023-05-19T04:44:07;21.00;38.40
45843;DHT22;31563;51.744;8.252;2023-05-19T04:46:35;21.00;38.40
45843;DHT22;31563;51.744;8.252;2023-05-19T04:49:04;21.00;38.40
45843;DHT22;31563;51.744;8.252;2023-05-19T04:51:32;21.00;38.40
45843;DHT22;31563;51.744;8.252;2023-05-19T04:54:03;21.00;38.40
45843;DHT22;31563;51.744;8.252;2023-05-19T04:56:31;21.00;38.40
45843;DHT22;31563;51.744;8.252;2023-05-19T04:58:59;21.00;38.50
45843;DHT22;31563;51.744;8.252;2023-05-19T05:01:27;21.00;38.50
45843;DHT22;31563;51.744;8.252;2023-05-19T05:03:57;21.00;38.50
45843;DHT22;31563;51.744;8.252;2023-05-19T05:06:26;21.00;38.40
45843;DHT22;31563;51.744;8.252;2023-05-19T05:08:55;21.00;38.40
45843;DHT22;31563;51.744;8.252;2023-05-19T05:11:25;21.10;38.60
45843;DHT22;31563;51.744;8.252;2023-05-19T05:13:54;21.00;38.40
45843;DHT22;31563;51.744;8.252;2023-05-19T05:16:24;21.10;38.50
45843;DHT22;31563;51.744;8.252;2023-05-19T05:18:53;21.10;38.40
45843;DHT22;31563;51.744;8.252;2023-05-19T05:21:22;21.10;38.50
45843;DHT22;31563;51.744;8.252;2023-05-19T05:23:51;21.10;38.50
45843;DHT22;31563;51.744;8.252;2023-05-19T05:26:20;21.10;38.40
45843;DHT22;31563;51.744;8.252;2023-05-19T05:28:50;21.10;38.40
45843;DHT22;31563;51.744;8.252;2023-05-19T05:31:18;21.10;38.30
45843;DHT22;31563;51.744;8.252;2023-05-19T05:33:47;21.10;38.40
45843;DHT22;31563;51.744;8.252;2023-05-19T05:36:15;21.10;38.30
45843;DHT22;31563;51.744;8.252;2023-05-19T05:38:43;21.20;38.40
45843;DHT22;31563;51.744;8.252;2023-05-19T05:41:11;21.20;38.40
45843;DHT22;31563;51.744;8.252;2023-05-19T05:43:39;21.20;38.30
45843;DHT22;31563;51.744;8.252;2023-05-19T05:46:09;21.30;38.40
45843;DHT22;31563;51.744;8.252;2023-05-19T05:48:37;21.40;38.80
45843;DHT22;31563;51.744;8.252;2023-05-19T05:51:08;21.40;38.40
45843;DHT22;31563;51.744;8.252;2023-05-19T05:53:40;21.50;38.60
45843;DHT22;31563;51.744;8.252;2023-05-19T05:56:11;21.50;38.30
45843;DHT22;31563;51.744;8.252;2023-05-19T05:58:39;21.50;39.00
45843;DHT22;31563;51.744;8.252;2023-05-19T06:01:09;21.50;38.30
45843;DHT22;31563;51.744;8.252;2023-05-19T06:03:41;21.60;38.30
45843;DHT22;31563;51.744;8.252;2023-05-19T06:06:10;21.60;38.40
45843;DHT22;31563;51.744;8.252;2023-05-19T06:08:38;21.70;38.60
45843;DHT22;31563;51.744;8.252;2023-05-19T06:11:06;21.70;38.50
45843;DHT22;31563;51.744;8.252;2023-05-19T06:13:35;21.80;38.60
45843;DHT22;31563;51.744;8.252;2023-05-19T06:16:04;21.80;38.60
45843;DHT22;31563;51.744;8.252;2023-05-19T06:18:33;21.80;38.80
45843;DHT22;31563;51.744;8.252;2023-05-19T06:21:02;21.90;38.40
45843;DHT22;31563;51.744;8.252;2023-05-19T06:23:30;21.90;38.40
45843;DHT22;31563;51.744;8.252;2023-05-19T06:25:58;22.00;38.50
45843;DHT22;31563;51.744;8.252;2023-05-19T06:28:26;22.00;38.60
45843;DHT22;31563;51.744;8.252;2023-05-19T06:30:54;22.00;38.30
45843;DHT22;31563;51.744;8.252;2023-05-19T06:33:23;22.10;38.60
45843;DHT22;31563;51.744;8.252;2023-05-19T06:35:56;22.10;38.20
45843;DHT22;31563;51.744;8.252;2023-05-19T06:38:24;22.10;38.10
45843;DHT22;31563;51.744;8.252;2023-05-19T06:40:53;22.20;38.10
45843;DHT22;31563;51.744;8.252;2023-05-19T06:43:21;22.20;38.30
45843;DHT22;31563;51.744;8.252;2023-05-19T06:45:51;22.20;38.40
45843;DHT22;31563;51.744;8.252;2023-05-19T06:48:19;22.40;38.50
45843;DHT22;31563;51.744;8.252;2023-05-19T06:50:47;22.40;38.20
45843;DHT22;31563;51.744;8.252;2023-05-19T06:53:18;22.50;38.40
45843;DHT22;31563;51.744;8.252;2023-05-19T06:55:46;22.50;38.40
45843;DHT22;31563;51.744;8.252;2023-05-19T06:58:25;22.60;38.60
45843;DHT22;31563;51.744;8.252;2023-05-19T07:00:53;22.70;38.40
45843;DHT22;31563;51.744;8.252;2023-05-19T07:03:21;22.70;38.00
45843;DHT22;31563;51.744;8.252;2023-05-19T07:05:50;22.70;37.90
45843;DHT22;31563;51.744;8.252;2023-05-19T07:08:19;22.70;37.80
45843;DHT22;31563;51.744;8.252;2023-05-19T07:10:47;22.70;37.80
45843;DHT22;31563;51.744;8.252;2023-05-19T07:13:16;22.80;38.00
45843;DHT22;31563;51.744;8.252;2023-05-19T07:15:44;22.80;38.00
45843;DHT22;31563;51.744;8.252;2023-05-19T07:18:12;22.80;38.40
45843;DHT22;31563;51.744;8.252;2023-05-19T07:20:40;22.90;38.10
45843;DHT22;31563;51.744;8.252;2023-05-19T07:23:08;22.90;38.30
45843;DHT22;31563;51.744;8.252;2023-05-19T07:25:38;23.10;38.20
45843;DHT22;31563;51.744;8.252;2023-05-19T07:28:06;23.10;37.50
45843;DHT22;31563;51.744;8.252;2023-05-19T07:30:34;22.80;37.20
45843;DHT22;31563;51.744;8.252;2023-05-19T07:33:02;22.70;37.50
45843;DHT22;31563;51.744;8.252;2023-05-19T07:35:30;22.60;37.90
45843;DHT22;31563;51.744;8.252;2023-05-19T07:37:58;22.50;38.30
45843;DHT22;31563;51.744;8.252;2023-05-19T07:40:28;22.50;38.50
45843;DHT22;31563;51.744;8.252;2023-05-19T07:42:57;22.40;37.90
45843;DHT22;31563;51.744;8.252;2023-05-19T07:45:26;22.40;38.10
45843;DHT22;31563;51.744;8.252;2023-05-19T07:47:54;22.50;38.40
45843;DHT22;31563;51.744;8.252;2023-05-19T07:50:22;22.60;38.10
45843;DHT22;31563;51.744;8.252;2023-05-19T07:52:51;22.60;37.90
45843;DHT22;31563;51.744;8.252;2023-05-19T07:55:19;22.70;38.30
45843;DHT22;31563;51.744;8.252;2023-05-19T07:57:49;22.70;37.90
45843;DHT22;31563;51.744;8.252;2023-05-19T08:00:18;22.80;37.80
45843;DHT22;31563;51.744;8.252;2023-05-19T08:02:47;22.80;38.00
45843;DHT22;31563;51.744;8.252;2023-05-19T08:05:15;22.90;38.10
45843;DHT22;31563;51.744;8.252;2023-05-19T08:07:44;23.00;38.00
45843;DHT22;31563;51.744;8.252;2023-05-19T08:10:12;23.20;38.10
45843;DHT22;31563;51.744;8.252;2023-05-19T08:12:40;23.30;38.00
45843;DHT22;31563;51.744;8.252;2023-05-19T08:15:09;23.40;37.90
45843;DHT22;31563;51.744;8.252;2023-05-19T08:17:39;23.50;37.80
45843;DHT22;31563;51.744;8.252;2023-05-19T08:20:08;23.60;37.90
45843;DHT22;31563;51.744;8.252;2023-05-19T08:22:38;23.70;37.80
45843;DHT22;31563;51.744;8.252;2023-05-19T08:25:07;23.80;38.10
45843;DHT22;31563;51.744;8.252;2023-05-19T08:27:36;23.90;38.10
45843;DHT22;31563;51.744;8.252;2023-05-19T08:30:05;24.00;38.10
45843;DHT22;31563;51.744;8.252;2023-05-19T08:32:33;24.10;38.20
45843;DHT22;31563;51.744;8.252;2023-05-19T08:35:03;24.20;38.20
45843;DHT22;31563;51.744;8.252;2023-05-19T08:37:32;24.30;38.20
45843;DHT22;31563;51.744;8.252;2023-05-19T08:40:03;24.40;38.20
45843;DHT22;31563;51.744;8.252;2023-05-19T08:42:32;24.50;38.20
45843;DHT22;31563;51.744;8.252;2023-05-19T08:45:00;24.50;38.10
45843;DHT22;31563;51.744;8.252;2023-05-19T08:47:29;24.60;38.00
45843;DHT22;31563;51.744;8.252;2023-05-19T08:50:04;24.70;38.00
45843;DHT22;31563;51.744;8.252;2023-05-19T08:52:41;24.80;37.80
45843;DHT22;31563;51.744;8.252;2023-05-19T08:55:24;24.80;37.90
45843;DHT22;31563;51.744;8.252;2023-05-19T08:57:55;24.90;37.90
45843;DHT22;31563;51.744;8.252;2023-05-19T09:00:24;25.00;37.70
45843;DHT22;31563;51.744;8.252;2023-05-19T09:02:52;25.10;37.70
45843;DHT22;31563;51.744;8.252;2023-05-19T09:05:28;25.20;37.60
45843;DHT22;31563;51.744;8.252;2023-05-19T09:07:57;25.30;37.50
45843;DHT22;31563;51.744;8.252;2023-05-19T09:10:28;25.40;37.60
45843;DHT22;31563;51.744;8.252;2023-05-19T09:12:56;25.40;37.20
45843;DHT22;31563;51.744;8.252;2023-05-19T09:15:26;25.30;37.20
45843;DHT22;31563;51.744;8.252;2023-05-19T09:18:05;25.40;38.20
45843;DHT22;31563;51.744;8.252;2023-05-19T09:20:39;25.60;37.60
45843;DHT22;31563;51.744;8.252;2023-05-19T09:23:12;25.80;37.70
45843;DHT22;31563;51.744;8.252;2023-05-19T09:25:50;25.80;37.50
45843;DHT22;31563;51.744;8.252;2023-05-19T09:28:25;26.00;37.40
45843;DHT22;31563;51.744;8.252;2023-05-19T09:30:58;26.10;37.30
45843;DHT22;31563;51.744;8.252;2023-05-19T09:33:27;26.10;37.20
45843;DHT22;31563;51.744;8.252;2023-05-19T09:35:57;26.20;37.20
45843;DHT22;31563;51.744;8.252;2023-05-19T09:38:25;26.30;37.10
45843;DHT22;31563;51.744;8.252;2023-05-19T09:40:56;26.50;37.10
45843;DHT22;31563;51.744;8.252;2023-05-19T09:43:26;26.50;36.90
45843;DHT22;31563;51.744;8.252;2023-05-19T09:45:58;26.60;36.90
45843;DHT22;31563;51.744;8.252;2023-05-19T09:48:27;26.70;36.90
45843;DHT22;31563;51.744;8.252;2023-05-19T09:50:59;26.80;36.70
45843;DHT22;31563;51.744;8.252;2023-05-19T09:53:29;26.90;36.70
45843;DHT22;31563;51.744;8.252;2023-05-19T09:56:00;26.90;36.60
45843;DHT22;31563;51.744;8.252;2023-05-19T09:58:30;27.00;36.70
45843;DHT22;31563;51.744;8.252;2023-05-19T10:01:00;27.10;36.50
45843;DHT22;31563;51.744;8.252;2023-05-19T10:03:30;27.20;36.60
45843;DHT22;31563;51.744;8.252;2023-05-19T10:06:00;27.90;38.90
45843;DHT22;31563;51.744;8.252;2023-05-19T10:08:28;29.50;38.20
45843;DHT22;31563;51.744;8.252;2023-05-19T10:10:58;30.70;36.40
45843;DHT22;31563;51.744;8.252;2023-05-19T10:13:28;31.60;34.70
45843;DHT22;31563;51.744;8.252;2023-05-19T10:15:57;32.30;34.10
45843;DHT22;31563;51.744;8.252;2023-05-19T10:18:26;33.00;33.20
45843;DHT22;31563;51.744;8.252;2023-05-19T10:20:56;33.40;32.20
45843;DHT22;31563;51.744;8.252;2023-05-19T10:23:27;33.90;32.00
45843;DHT22;31563;51.744;8.252;2023-05-19T10:25:57;34.30;31.40
45843;DHT22;31563;51.744;8.252;2023-05-19T10:28:33;34.40;30.10
45843;DHT22;31563;51.744;8.252;2023-05-19T10:31:05;33.40;28.60
45843;DHT22;31563;51.744;8.252;2023-05-19T10:33:46;32.90;29.70
45843;DHT22;31563;51.744;8.252;2023-05-19T10:36:38;33.90;29.20
45843;DHT22;31563;51.744;8.252;2023-05-19T10:39:15;34.70;28.50
45843;DHT22;31563;51.744;8.252;2023-05-19T10:41:49;35.60;27.50
45843;DHT22;31563;51.744;8.252;2023-05-19T10:44:27;35.90;26.60
45843;DHT22;31563;51.744;8.252;2023-05-19T10:46:58;36.20;25.90
45843;DHT22;31563;51.744;8.252;2023-05-19T10:49:26;36.20;25.10
45843;DHT22;31563;51.744;8.252;2023-05-19T10:51:54;35.30;24.80
45843;DHT22;31563;51.744;8.252;2023-05-19T10:54:40;34.40;25.00
45843;DHT22;31563;51.744;8.252;2023-05-19T10:57:13;34.70;26.00
45843;DHT22;31563;51.744;8.252;2023-05-19T10:59:42;35.40;26.10
45843;DHT22;31563;51.744;8.252;2023-05-19T11:02:36;35.90;25.30
45843;DHT22;31563;51.744;8.252;2023-05-19T11:05:08;35.50;24.90
45843;DHT22;31563;51.744;8.252;2023-05-19T11:07:40;35.30;24.80
45843;DHT22;31563;51.744;8.252;2023-05-19T11:10:11;35.20;25.20
45843;DHT22;31563;51.744;8.252;2023-05-19T11:12:41;34.80;24.80
45843;DHT22;31563;51.744;8.252;2023-05-19T11:15:11;34.80;25.50
45843;DHT22;31563;51.744;8.252;2023-05-19T11:17:41;35.60;25.70
45843;DHT22;31563;51.744;8.252;2023-05-19T11:20:20;36.40;25.30
45843;DHT22;31563;51.744;8.252;2023-05-19T11:23:05;37.20;24.90
45843;DHT22;31563;51.744;8.252;2023-05-19T11:25:44;37.60;24.20
45843;DHT22;31563;51.744;8.252;2023-05-19T11:28:16;38.20;24.40
45843;DHT22;31563;51.744;8.252;2023-05-19T11:30:46;38.60;24.30
45843;DHT22;31563;51.744;8.252;2023-05-19T11:33:18;38.80;23.80
45843;DHT22;31563;51.744;8.252;2023-05-19T11:35:49;39.00;23.90
45843;DHT22;31563;51.744;8.252;2023-05-19T11:38:18;39.20;23.50
45843;DHT22;31563;51.744;8.252;2023-05-19T11:40:47;39.50;23.50
45843;DHT22;31563;51.744;8.252;2023-05-19T11:43:16;39.70;23.50
45843;DHT22;31563;51.744;8.252;2023-05-19T11:45:44;40.00;23.30
45843;DHT22;31563;51.744;8.252;2023-05-19T11:48:13;40.10;23.20
45843;DHT22;31563;51.744;8.252;2023-05-19T11:50:43;40.30;23.00
45843;DHT22;31563;51.744;8.252;2023-05-19T11:53:12;40.50;22.80
45843;DHT22;31563;51.744;8.252;2023-05-19T11:55:41;40.60;24.00
45843;DHT22;31563;51.744;8.252;2023-05-19T11:58:12;40.80;24.00
45843;DHT22;31563;51.744;8.252;2023-05-19T12:00:42;41.00;24.70
45843;DHT22;31563;51.744;8.252;2023-05-19T12:03:12;41.70;24.80
45843;DHT22;31563;51.744;8.252;2023-05-19T12:05:42;41.40;23.80
45843;DHT22;31563;51.744;8.252;2023-05-19T12:08:12;40.60;24.10
45843;DHT22;31563;51.744;8.252;2023-05-19T12:10:40;40.10;24.20
45843;DHT22;31563;51.744;8.252;2023-05-19T12:13:09;39.70;24.20
45843;DHT22;31563;51.744;8.252;2023-05-19T12:15:39;39.70;24.70
45843;DHT22;31563;51.744;8.252;2023-05-19T12:18:07;39.70;24.70
45843;DHT22;31563;51.744;8.252;2023-05-19T12:20:35;39.80;24.40
45843;DHT22;31563;51.744;8.252;2023-05-19T12:23:04;39.60;24.20
45843;DHT22;31563;51.744;8.252;2023-05-19T12:25:33;38.30;24.10
45843;DHT22;31563;51.744;8.252;2023-05-19T12:28:02;37.20;24.40
45843;DHT22;31563;51.744;8.252;2023-05-19T12:30:30;36.40;25.40
45843;DHT22;31563;51.744;8.252;2023-05-19T12:33:02;37.00;25.20
45843;DHT22;31563;51.744;8.252;2023-05-19T12:35:31;37.20;24.80
45843;DHT22;31563;51.744;8.252;2023-05-19T12:38:02;36.60;24.40
45843;DHT22;31563;51.744;8.252;2023-05-19T12:40:32;36.60;25.40
45843;DHT22;31563;51.744;8.252;2023-05-19T12:43:01;37.40;25.30
45843;DHT22;31563;51.744;8.252;2023-05-19T12:45:33;36.70;24.60
45843;DHT22;31563;51.744;8.252;2023-05-19T12:48:04;36.00;25.00
45843;DHT22;31563;51.744;8.252;2023-05-19T12:50:33;36.30;25.50
45843;DHT22;31563;51.744;8.252;2023-05-19T12:53:01;37.00;25.50
45843;DHT22;31563;51.744;8.252;2023-05-19T12:55:29;37.50;25.30
45843;DHT22;31563;51.744;8.252;2023-05-19T12:58:05;37.60;25.10
45843;DHT22;31563;51.744;8.252;2023-05-19T13:00:39;37.90;25.20
45843;DHT22;31563;51.744;8.252;2023-05-19T13:03:14;38.20;25.20
45843;DHT22;31563;51.744;8.252;2023-05-19T13:05:44;38.40;25.00
45843;DHT22;31563;51.744;8.252;2023-05-19T13:08:14;38.50;24.70
45843;DHT22;31563;51.744;8.252;2023-05-19T13:10:43;38.60;24.60
45843;DHT22;31563;51.744;8.252;2023-05-19T13:13:12;37.40;24.00
45843;DHT22;31563;51.744;8.252;2023-05-19T13:15:41;37.40;25.00
45843;DHT22;31563;51.744;8.252;2023-05-19T13:18:12;37.80;25.10
45843;DHT22;31563;51.744;8.252;2023-05-19T13:20:41;38.00;24.80
45843;DHT22;31563;51.744;8.252;2023-05-19T13:23:11;38.20;25.50
45843;DHT22;31563;51.744;8.252;2023-05-19T13:25:40;38.40;24.90
45843;DHT22;31563;51.744;8.252;2023-05-19T13:28:09;38.60;24.90
45843;DHT22;31563;51.744;8.252;2023-05-19T13:30:38;38.70;24.70
45843;DHT22;31563;51.744;8.252;2023-05-19T13:33:07;38.40;24.50
45843;DHT22;31563;51.744;8.252;2023-05-19T13:35:37;37.50;24.40
45843;DHT22;31563;51.744;8.252;2023-05-19T13:38:06;37.00;24.90
45843;DHT22;31563;51.744;8.252;2023-05-19T13:40:36;36.40;25.20
45843;DHT22;31563;51.744;8.252;2023-05-19T13:43:04;35.90;25.70
45843;DHT22;31563;51.744;8.252;2023-05-19T13:45:33;36.20;26.60
45843;DHT22;31563;51.744;8.252;2023-05-19T13:48:01;37.00;26.70
45843;DHT22;31563;51.744;8.252;2023-05-19T13:50:29;37.80;26.60
45843;DHT22;31563;51.744;8.252;2023-05-19T13:52:59;38.40;26.60
45843;DHT22;31563;51.744;8.252;2023-05-19T13:55:27;38.90;26.20
45843;DHT22;31563;51.744;8.252;2023-05-19T13:57:55;38.90;25.80
45843;DHT22;31563;51.744;8.252;2023-05-19T14:00:23;38.50;25.80
45843;DHT22;31563;51.744;8.252;2023-05-19T14:02:52;38.10;26.00
45843;DHT22;31563;51.744;8.252;2023-05-19T14:05:20;37.70;26.20
45843;DHT22;31563;51.744;8.252;2023-05-19T14:07:48;37.60;26.50
45843;DHT22;31563;51.744;8.252;2023-05-19T14:10:17;37.60;26.40
45843;DHT22;31563;51.744;8.252;2023-05-19T14:12:46;37.40;26.50
45843;DHT22;31563;51.744;8.252;2023-05-19T14:15:34;37.20;26.40
45843;DHT22;31563;51.744;8.252;2023-05-19T14:18:04;37.20;27.00
45843;DHT22;31563;51.744;8.252;2023-05-19T14:20:33;37.60;27.00
45843;DHT22;31563;51.744;8.252;2023-05-19T14:23:01;37.90;26.90
45843;DHT22;31563;51.744;8.252;2023-05-19T14:25:31;38.10;26.50
45843;DHT22;31563;51.744;8.252;2023-05-19T14:27:59;37.70;26.40
45843;DHT22;31563;51.744;8.252;2023-05-19T14:30:28;37.30;26.60
45843;DHT22;31563;51.744;8.252;2023-05-19T14:32:56;37.60;27.00
45843;DHT22;31563;51.744;8.252;2023-05-19T14:35:24;37.70;26.70
45843;DHT22;31563;51.744;8.252;2023-05-19T14:37:53;37.40;26.70
45843;DHT22;31563;51.744;8.252;2023-05-19T14:40:21;37.70;27.00
45843;DHT22;31563;51.744;8.252;2023-05-19T14:42:50;37.60;26.80
45843;DHT22;31563;51.744;8.252;2023-05-19T14:45:18;37.40;26.70
45843;DHT22;31563;51.744;8.252;2023-05-19T14:47:47;37.20;26.80
45843;DHT22;31563;51.744;8.252;2023-05-19T14:50:15;37.10;26.90
45843;DHT22;31563;51.744;8.252;2023-05-19T14:52:43;36.90;26.90
45843;DHT22;31563;51.744;8.252;2023-05-19T14:55:11;37.10;27.20
45843;DHT22;31563;51.744;8.252;2023-05-19T14:57:39;37.30;27.20
45843;DHT22;31563;51.744;8.252;2023-05-19T15:00:10;37.60;27.30
45843;DHT22;31563;51.744;8.252;2023-05-19T15:02:38;37.90;27.20
45843;DHT22;31563;51.744;8.252;2023-05-19T15:05:07;38.20;27.20
45843;DHT22;31563;51.744;8.252;2023-05-19T15:07:35;38.40;27.20
45843;DHT22;31563;51.744;8.252;2023-05-19T15:10:04;38.60;27.00
45843;DHT22;31563;51.744;8.252;2023-05-19T15:12:33;38.80;27.00
45843;DHT22;31563;51.744;8.252;2023-05-19T15:15:01;39.00;26.70
45843;DHT22;31563;51.744;8.252;2023-05-19T15:17:30;39.10;26.90
45843;DHT22;31563;51.744;8.252;2023-05-19T15:19:59;38.90;26.60
45843;DHT22;31563;51.744;8.252;2023-05-19T15:22:27;38.50;26.50
45843;DHT22;31563;51.744;8.252;2023-05-19T15:24:55;38.20;26.60
45843;DHT22;31563;51.744;8.252;2023-05-19T15:27:23;37.90;26.70
45843;DHT22;31563;51.744;8.252;2023-05-19T15:29:52;37.70;26.90
45843;DHT22;31563;51.744;8.252;2023-05-19T15:32:20;37.70;27.60
45843;DHT22;31563;51.744;8.252;2023-05-19T15:34:49;37.70;27.20
45843;DHT22;31563;51.744;8.252;2023-05-19T15:37:17;37.70;27.20
45843;DHT22;31563;51.744;8.252;2023-05-19T15:39:45;37.60;27.10
45843;DHT22;31563;51.744;8.252;2023-05-19T15:42:14;37.40;27.10
45843;DHT22;31563;51.744;8.252;2023-05-19T15:44:42;37.20;27.00
45843;DHT22;31563;51.744;8.252;2023-05-19T15:47:11;37.10;27.10
45843;DHT22;31563;51.744;8.252;2023-05-19T15:49:39;36.80;27.10